createdAt,value
2022-12-08T00:02:07.327Z,9.16
2022-12-08T00:04:56.096Z,9.16
2022-12-08T00:07:41.205Z,9.05
2022-12-08T00:10:40.233Z,9.20
2022-12-08T00:12:59.210Z,9.08
2022-12-08T00:15:28.942Z,8.71
2022-12-08T00:17:57.547Z,9.02
2022-12-08T00:20:26.167Z,9.15
2022-12-08T00:22:54.754Z,9.18
2022-12-08T00:25:23.409Z,9.27
2022-12-08T00:27:52.037Z,9.01
2022-12-08T00:30:20.891Z,9.08
2022-12-08T00:32:50.915Z,9.09
2022-12-08T00:35:19.528Z,9.20
2022-12-08T00:37:49.022Z,8.93
2022-12-08T00:40:17.695Z,9.09
2022-12-08T00:42:46.281Z,9.12
2022-12-08T00:45:15.027Z,9.20
2022-12-08T00:47:43.663Z,8.95
2022-12-08T00:50:14.012Z,9.08
2022-12-08T00:52:42.680Z,8.84
2022-12-08T00:55:11.346Z,8.92
2022-12-08T00:57:39.964Z,8.99
2022-12-08T01:00:09.658Z,8.96
2022-12-08T01:02:38.279Z,8.83
2022-12-08T01:05:07.816Z,9.04
2022-12-08T01:07:37.846Z,9.14
2022-12-08T01:10:07.862Z,8.70
2022-12-08T01:12:36.528Z,8.93
2022-12-08T01:15:05.503Z,8.59
2022-12-08T01:17:34.151Z,8.72
2022-12-08T01:20:03.639Z,8.70
2022-12-08T01:22:32.443Z,8.46
2022-12-08T01:25:02.123Z,8.49
2022-12-08T01:27:30.494Z,8.17
2022-12-08T01:29:58.906Z,8.56
2022-12-08T01:32:27.291Z,7.94
2022-12-08T01:34:55.625Z,8.49
2022-12-08T01:37:24.053Z,8.85
2022-12-08T01:39:52.370Z,8.67
2022-12-08T01:42:24.142Z,8.68
2022-12-08T01:45:00.849Z,8.50
2022-12-08T01:47:37.346Z,8.82
2022-12-08T01:50:10.935Z,8.87
2022-12-08T01:52:44.115Z,8.80
2022-12-08T01:55:20.357Z,8.50
2022-12-08T01:57:54.012Z,8.03
2022-12-08T02:00:23.969Z,7.98
2022-12-08T02:02:58.494Z,8.29
2022-12-08T02:05:30.998Z,8.46
2022-12-08T02:08:04.386Z,7.82
2022-12-08T02:10:37.070Z,8.58
2022-12-08T02:13:09.745Z,8.57
2022-12-08T02:15:47.186Z,8.89
2022-12-08T02:18:35.421Z,8.96
2022-12-08T02:21:10.133Z,8.21
2022-12-08T02:23:50.702Z,7.12
2022-12-08T02:27:16.138Z,8.01
2022-12-08T02:30:26.064Z,8.45
2022-12-08T02:33:54.841Z,7.54
2022-12-08T02:36:28.278Z,8.75
2022-12-08T02:39:04.614Z,9.04
2022-12-08T02:41:43.152Z,8.88
2022-12-08T02:44:19.889Z,8.41
2022-12-08T02:46:53.714Z,7.48
2022-12-08T02:49:28.636Z,7.45
2022-12-08T02:52:07.927Z,8.18
2022-12-08T02:54:37.558Z,7.50
2022-12-08T02:57:30.589Z,7.49
2022-12-08T03:00:08.467Z,7.45
2022-12-08T03:02:53.845Z,6.16
2022-12-08T03:05:59.007Z,7.20
2022-12-08T03:08:35.489Z,7.06
2022-12-08T03:11:11.015Z,6.08
2022-12-08T03:13:45.813Z,7.52
2022-12-08T03:16:18.809Z,8.15
2022-12-08T03:18:52.203Z,7.65
2022-12-08T03:21:23.328Z,8.37
2022-12-08T03:23:56.846Z,8.66
2022-12-08T03:26:31.750Z,8.89
2022-12-08T03:29:00.537Z,8.34
2022-12-08T03:31:35.034Z,7.95
2022-12-08T03:34:06.299Z,8.48
2022-12-08T03:36:36.227Z,8.67
2022-12-08T03:39:05.164Z,8.89
2022-12-08T03:41:33.578Z,8.56
2022-12-08T03:44:01.905Z,8.86
2022-12-08T03:46:32.314Z,8.95
2022-12-08T03:49:00.666Z,8.93
2022-12-08T03:51:29.107Z,7.79
2022-12-08T03:53:58.809Z,7.55
2022-12-08T03:56:30.989Z,7.47
2022-12-08T03:59:00.205Z,6.17
2022-12-08T04:01:28.824Z,7.41
2022-12-08T04:03:57.512Z,7.82
2022-12-08T04:06:26.448Z,8.10
2022-12-08T04:08:54.793Z,8.07
2022-12-08T04:11:24.615Z,8.45
2022-12-08T04:13:52.973Z,8.34
2022-12-08T04:16:24.622Z,8.60
2022-12-08T04:18:53.423Z,8.83
2022-12-08T04:21:22.028Z,9.12
2022-12-08T04:23:52.894Z,7.27
2022-12-08T04:26:24.716Z,8.33
2022-12-08T04:28:53.154Z,8.41
2022-12-08T04:31:21.570Z,7.76
2022-12-08T04:33:49.986Z,8.50
2022-12-08T04:36:18.325Z,6.63
2022-12-08T04:38:46.898Z,7.42
2022-12-08T04:41:15.293Z,8.54
2022-12-08T04:43:45.576Z,8.88
2022-12-08T04:46:14.241Z,8.52
2022-12-08T04:48:43.019Z,8.69
2022-12-08T04:51:17.953Z,8.08
2022-12-08T04:53:47.422Z,7.77
2022-12-08T04:56:17.960Z,7.20
2022-12-08T04:58:48.365Z,6.09
2022-12-08T05:01:16.918Z,6.28
2022-12-08T05:03:45.291Z,7.33
2022-12-08T05:06:15.348Z,7.81
2022-12-08T05:08:44.600Z,6.53
2022-12-08T05:11:14.556Z,7.42
2022-12-08T05:13:42.911Z,8.35
2022-12-08T05:16:15.593Z,8.51
2022-12-08T05:18:44.833Z,7.67
2022-12-08T05:21:13.579Z,7.69
2022-12-08T05:23:41.984Z,7.52
2022-12-08T05:26:10.373Z,7.71
2022-12-08T05:28:41.785Z,7.60
2022-12-08T05:31:12.046Z,7.98
2022-12-08T05:33:40.496Z,8.48
2022-12-08T05:36:10.184Z,8.63
2022-12-08T05:38:38.743Z,8.71
2022-12-08T05:41:08.534Z,8.12
2022-12-08T05:43:37.523Z,7.36
2022-12-08T05:46:06.304Z,7.39
2022-12-08T05:48:36.781Z,8.18
2022-12-08T05:51:06.084Z,7.28
2022-12-08T05:53:34.492Z,7.27
2022-12-08T05:56:02.824Z,7.53
2022-12-08T05:58:31.199Z,7.22
2022-12-08T06:00:59.536Z,8.36
2022-12-08T06:03:27.954Z,7.32
2022-12-08T06:05:57.901Z,7.60
2022-12-08T06:08:26.299Z,7.78
2022-12-08T06:10:54.783Z,8.09
2022-12-08T06:13:23.116Z,6.42
2022-12-08T06:15:51.476Z,6.88
2022-12-08T06:18:19.837Z,7.15
2022-12-08T06:20:48.250Z,5.71
2022-12-08T06:23:18.068Z,6.20
2022-12-08T06:25:46.453Z,5.86
2022-12-08T06:28:14.785Z,6.91
2022-12-08T06:30:43.148Z,6.69
2022-12-08T06:33:11.511Z,6.82
2022-12-08T06:35:39.892Z,6.59
2022-12-08T06:38:08.239Z,7.32
2022-12-08T06:40:37.981Z,7.30
2022-12-08T06:43:06.358Z,6.60
2022-12-08T06:45:34.759Z,6.51
2022-12-08T06:48:03.735Z,7.45
2022-12-08T06:50:33.420Z,7.64
2022-12-08T06:53:05.453Z,7.26
2022-12-08T06:55:57.770Z,7.13
2022-12-08T06:58:24.369Z,6.83
2022-12-08T07:00:52.846Z,7.43
2022-12-08T07:03:21.228Z,8.04
2022-12-08T07:05:49.745Z,7.66
2022-12-08T07:08:18.154Z,6.96
2022-12-08T07:10:46.618Z,5.43
2022-12-08T07:13:14.968Z,6.58
2022-12-08T07:15:44.764Z,6.65
2022-12-08T07:18:13.274Z,6.62
2022-12-08T07:20:41.612Z,7.66
2022-12-08T07:23:09.922Z,8.08
2022-12-08T07:25:38.416Z,7.71
2022-12-08T07:28:11.691Z,8.12
2022-12-08T07:30:40.340Z,8.21
2022-12-08T07:33:10.039Z,8.10
2022-12-08T07:35:38.423Z,7.27
2022-12-08T07:38:06.790Z,7.91
2022-12-08T07:40:35.253Z,7.24
2022-12-08T07:43:03.587Z,7.18
2022-12-08T07:45:32.099Z,6.89
2022-12-08T07:48:00.970Z,7.70
2022-12-08T07:50:30.691Z,7.33
2022-12-08T07:52:59.036Z,6.44
2022-12-08T07:55:27.546Z,7.50
2022-12-08T07:57:56.240Z,8.17
2022-12-08T08:00:25.192Z,8.10
2022-12-08T08:02:54.060Z,7.92
2022-12-08T08:05:23.561Z,8.14
2022-12-08T08:07:53.398Z,8.17
2022-12-08T08:10:21.834Z,8.36
2022-12-08T08:12:50.169Z,6.01
2022-12-08T08:15:19.371Z,6.84
2022-12-08T08:17:52.047Z,7.17
2022-12-08T08:20:22.356Z,6.65
2022-12-08T08:22:53.146Z,5.13
2022-12-08T08:25:23.504Z,4.88
2022-12-08T08:27:52.113Z,5.51
2022-12-08T08:30:21.227Z,6.09
2022-12-08T08:32:50.576Z,6.09
2022-12-08T08:35:19.369Z,6.90
2022-12-08T08:37:49.411Z,6.75
2022-12-08T08:40:19.711Z,7.99
2022-12-08T08:42:48.330Z,8.47
2022-12-08T08:45:17.066Z,7.45
2022-12-08T08:47:45.431Z,7.22
2022-12-08T08:50:13.969Z,6.85
2022-12-08T08:52:42.626Z,5.59
2022-12-08T08:55:11.463Z,7.24
2022-12-08T08:57:41.292Z,8.06
2022-12-08T09:00:11.569Z,7.60
2022-12-08T09:02:40.568Z,7.94
2022-12-08T09:05:09.920Z,7.30
2022-12-08T09:07:38.739Z,7.03
2022-12-08T09:10:09.321Z,7.35
2022-12-08T09:12:37.896Z,7.66
2022-12-08T09:15:08.897Z,8.05
2022-12-08T09:17:38.258Z,8.22
2022-12-08T09:20:08.650Z,8.59
2022-12-08T09:22:37.267Z,8.41
2022-12-08T09:25:06.399Z,7.40
2022-12-08T09:27:34.948Z,7.84
2022-12-08T09:30:03.618Z,8.43
2022-12-08T09:32:33.533Z,8.53
2022-12-08T09:35:02.319Z,7.74
2022-12-08T09:37:30.687Z,8.42
2022-12-08T09:39:59.117Z,7.32
2022-12-08T09:42:39.543Z,8.24
2022-12-08T09:45:13.001Z,8.04
2022-12-08T09:47:46.901Z,7.42
2022-12-08T09:50:20.836Z,7.90
2022-12-08T09:53:01.694Z,8.01
2022-12-08T09:55:41.931Z,8.36
2022-12-08T09:58:22.526Z,8.43
2022-12-08T10:00:51.132Z,8.15
2022-12-08T10:03:31.187Z,7.36
2022-12-08T10:06:08.838Z,7.46
2022-12-08T10:08:49.137Z,6.82
2022-12-08T10:11:25.505Z,6.99
2022-12-08T10:14:00.441Z,6.68
2022-12-08T10:16:35.711Z,7.76
2022-12-08T10:19:16.175Z,7.24
2022-12-08T10:21:44.860Z,6.08
2022-12-08T10:24:23.511Z,7.32
2022-12-08T10:26:52.087Z,6.67
2022-12-08T10:29:20.445Z,7.16
2022-12-08T10:31:48.879Z,8.02
2022-12-08T10:34:23.196Z,6.90
2022-12-08T10:36:54.008Z,7.06
2022-12-08T10:39:46.970Z,7.36
2022-12-08T10:42:22.144Z,7.62
2022-12-08T10:45:01.851Z,8.26
2022-12-08T10:47:36.282Z,8.41
2022-12-08T10:50:19.358Z,8.59
2022-12-08T10:52:55.536Z,8.23
2022-12-08T10:55:25.262Z,7.94
2022-12-08T10:57:53.740Z,8.55
2022-12-08T11:00:26.103Z,8.34
2022-12-08T11:02:59.570Z,7.65
2022-12-08T11:05:34.535Z,7.56
2022-12-08T11:08:04.122Z,8.50
2022-12-08T11:10:36.894Z,8.76
2022-12-08T11:13:08.352Z,8.39
2022-12-08T11:15:41.508Z,7.87
2022-12-08T11:18:27.017Z,7.31
2022-12-08T11:21:06.965Z,7.65
2022-12-08T11:23:38.344Z,8.07
2022-12-08T11:26:21.492Z,6.92
2022-12-08T11:28:50.128Z,7.55
2022-12-08T11:31:31.392Z,8.16
2022-12-08T11:34:00.064Z,7.75
2022-12-08T11:36:34.668Z,8.15
2022-12-08T11:39:05.749Z,8.57
2022-12-08T11:41:38.972Z,8.56
2022-12-08T11:44:22.789Z,8.49
2022-12-08T11:46:57.023Z,8.31
2022-12-08T11:49:37.837Z,8.61
2022-12-08T11:52:19.592Z,8.78
2022-12-08T11:54:53.057Z,8.97
2022-12-08T11:57:24.242Z,8.86
2022-12-08T11:59:55.593Z,7.24
2022-12-08T12:02:27.425Z,7.46
2022-12-08T12:05:02.214Z,7.43
2022-12-08T12:07:56.727Z,6.68
2022-12-08T12:10:55.130Z,6.59
2022-12-08T12:13:41.717Z,6.76
2022-12-08T12:16:43.337Z,7.21
2022-12-08T12:19:15.732Z,6.56
2022-12-08T12:21:48.102Z,6.57
2022-12-08T12:24:26.105Z,7.43
2022-12-08T12:27:07.799Z,6.57
2022-12-08T12:29:39.588Z,6.90
2022-12-08T12:32:10.986Z,7.54
2022-12-08T12:34:50.189Z,8.08
2022-12-08T12:37:21.675Z,8.50
2022-12-08T12:39:59.162Z,8.30
2022-12-08T12:42:43.158Z,8.26
2022-12-08T12:45:27.541Z,7.84
2022-12-08T12:48:23.926Z,8.35
2022-12-08T12:50:55.259Z,8.39
2022-12-08T12:53:50.276Z,8.37
2022-12-08T12:56:52.047Z,8.53
2022-12-08T12:59:36.509Z,8.14
2022-12-08T13:02:17.365Z,8.57
2022-12-08T13:04:54.709Z,8.54
2022-12-08T13:07:26.071Z,8.67
2022-12-08T13:09:59.996Z,8.52
2022-12-08T13:12:30.454Z,8.27
2022-12-08T13:15:06.028Z,7.61
2022-12-08T13:17:38.302Z,6.88
2022-12-08T13:20:18.933Z,7.37
2022-12-08T13:23:03.764Z,8.15
2022-12-08T13:26:10.489Z,8.64
2022-12-08T13:29:15.122Z,8.78
2022-12-08T13:31:50.132Z,8.79
2022-12-08T13:34:26.430Z,8.56
2022-12-08T13:37:18.865Z,7.97
2022-12-08T13:39:52.379Z,7.81
2022-12-08T13:42:26.141Z,8.55
2022-12-08T13:45:24.235Z,7.99
2022-12-08T13:53:00.039Z,8.37
2022-12-08T13:57:05.180Z,8.26
2022-12-08T13:59:34.107Z,8.50
2022-12-08T14:02:13.315Z,8.72
2022-12-08T14:05:17.042Z,8.69
2022-12-08T14:07:36.562Z,8.83
2022-12-08T14:10:08.591Z,8.74
2022-12-08T14:12:38.378Z,8.72
2022-12-08T14:15:09.145Z,8.65
2022-12-08T14:17:42.032Z,8.77
2022-12-08T14:20:24.512Z,8.43
2022-12-08T14:22:54.037Z,8.73
2022-12-08T14:25:24.322Z,8.84
2022-12-08T14:28:00.678Z,8.85
2022-12-08T14:30:32.816Z,8.72
2022-12-08T14:33:05.288Z,8.87
2022-12-08T14:35:35.598Z,8.80
2022-12-08T14:38:06.122Z,8.86
2022-12-08T14:40:36.978Z,8.85
2022-12-08T14:43:19.337Z,8.53
2022-12-08T14:45:53.699Z,8.77
2022-12-08T14:48:26.909Z,8.88
2022-12-08T14:51:06.622Z,8.86
2022-12-08T14:53:40.659Z,8.86
2022-12-08T14:56:15.297Z,8.93
2022-12-08T14:58:43.929Z,8.79
2022-12-08T15:01:17.125Z,8.61
2022-12-08T15:03:51.276Z,8.83
2022-12-08T15:06:23.331Z,8.81
2022-12-08T15:08:58.861Z,8.81
2022-12-08T15:11:36.120Z,8.85
2022-12-08T15:14:05.257Z,8.91
2022-12-08T15:16:40.963Z,8.85
2022-12-08T15:19:28.547Z,8.84
2022-12-08T15:21:59.791Z,8.87
2022-12-08T15:24:31.329Z,8.84
2022-12-08T15:27:00.012Z,8.83
2022-12-08T15:29:30.971Z,8.88
2022-12-08T15:32:02.171Z,8.89
2022-12-08T15:34:32.705Z,8.98
2022-12-08T15:37:01.352Z,8.93
2022-12-08T15:39:33.685Z,8.91
2022-12-08T15:42:03.205Z,8.81
2022-12-08T15:44:32.990Z,8.45
2022-12-08T15:47:02.217Z,7.84
2022-12-08T15:49:32.351Z,7.87
2022-12-08T15:52:11.307Z,8.60
2022-12-08T15:54:40.342Z,8.19
2022-12-08T15:57:21.565Z,7.91
2022-12-08T15:59:54.603Z,7.73
2022-12-08T16:02:25.247Z,8.55
2022-12-08T16:07:44.142Z,7.54
2022-12-08T16:10:18.422Z,7.49
2022-12-08T16:16:00.240Z,8.32
2022-12-08T16:18:32.640Z,8.34
2022-12-08T16:23:52.241Z,8.65
2022-12-08T16:27:06.822Z,8.76
2022-12-08T16:29:19.752Z,8.78
2022-12-08T16:31:48.805Z,8.42
2022-12-08T16:34:17.530Z,8.74
2022-12-08T16:36:47.558Z,8.72
2022-12-08T16:39:16.190Z,8.81
2022-12-08T16:42:02.230Z,8.88
2022-12-08T16:44:30.849Z,8.90
2022-12-08T16:46:59.444Z,8.91
2022-12-08T16:49:28.032Z,8.93
2022-12-08T16:51:58.028Z,8.90
2022-12-08T16:54:26.616Z,8.74
2022-12-08T16:56:55.245Z,8.85
2022-12-08T16:59:23.896Z,8.87
2022-12-08T17:01:52.544Z,8.96
2022-12-08T17:04:37.200Z,8.95
2022-12-08T17:07:07.238Z,9.00
2022-12-08T17:09:36.028Z,8.92
2022-12-08T17:12:04.712Z,8.87
2022-12-08T17:14:35.510Z,8.91
2022-12-08T17:17:04.449Z,8.77
2022-12-08T17:19:33.252Z,8.80
2022-12-08T17:22:03.267Z,8.91
2022-12-08T17:24:33.355Z,8.90
2022-12-08T17:27:04.100Z,8.91
2022-12-08T17:29:33.053Z,8.80
2022-12-08T17:32:01.890Z,8.88
2022-12-08T17:34:30.573Z,8.90
2022-12-08T17:36:59.219Z,8.92
2022-12-08T17:39:27.989Z,7.12
2022-12-08T17:41:57.994Z,8.29
2022-12-08T17:44:28.187Z,8.66
2022-12-08T17:46:56.848Z,8.29
2022-12-08T17:49:29.559Z,8.67
2022-12-08T17:52:01.820Z,8.56
2022-12-08T17:54:31.065Z,8.78
2022-12-08T17:57:01.191Z,8.44
2022-12-08T17:59:30.152Z,8.71
2022-12-08T18:01:59.747Z,8.86
2022-12-08T18:04:29.027Z,8.64
2022-12-08T18:06:59.430Z,8.83
2022-12-08T18:09:28.181Z,8.83
2022-12-08T18:11:56.854Z,7.95
2022-12-08T18:14:26.907Z,8.00
2022-12-08T18:16:55.935Z,8.69
2022-12-08T18:19:24.739Z,8.71
2022-12-08T18:21:53.367Z,8.70
2022-12-08T18:24:23.935Z,8.78
2022-12-08T18:26:52.943Z,8.81
2022-12-08T18:29:22.597Z,8.74
2022-12-08T18:31:53.082Z,8.78
2022-12-08T18:34:21.959Z,8.53
2022-12-08T18:36:50.575Z,8.46
2022-12-08T18:39:24.722Z,8.75
2022-12-08T18:41:53.888Z,8.56
2022-12-08T18:44:22.887Z,8.13
2022-12-08T18:46:52.925Z,8.16
2022-12-08T18:49:22.080Z,8.63
2022-12-08T18:51:50.689Z,8.11
2022-12-08T18:54:22.129Z,8.40
2022-12-08T18:56:56.335Z,8.43
2022-12-08T18:59:24.996Z,8.09
2022-12-08T19:01:55.012Z,8.23
2022-12-08T19:04:34.681Z,7.93
2022-12-08T19:07:06.411Z,8.08
2022-12-08T19:09:35.031Z,8.49
2022-12-08T19:12:03.655Z,7.87
2022-12-08T19:14:33.525Z,8.46
2022-12-08T19:17:03.729Z,8.07
2022-12-08T19:19:32.381Z,8.58
2022-12-08T19:22:00.985Z,8.26
2022-12-08T19:24:29.805Z,8.56
2022-12-08T19:26:58.459Z,8.68
2022-12-08T19:29:27.134Z,8.64
2022-12-08T19:31:56.050Z,8.67
2022-12-08T19:34:26.370Z,8.37
2022-12-08T19:36:54.967Z,8.48
2022-12-08T19:39:42.590Z,8.53
2022-12-08T19:42:35.979Z,8.49
2022-12-08T19:45:11.851Z,8.44
2022-12-08T19:47:41.458Z,8.44
2022-12-08T19:50:32.286Z,8.44
2022-12-08T19:53:01.350Z,8.46
2022-12-08T19:55:30.511Z,8.51
2022-12-08T19:57:59.829Z,8.46
2022-12-08T20:00:29.285Z,8.54
2022-12-08T20:02:58.503Z,8.44
2022-12-08T20:05:29.288Z,8.48
2022-12-08T20:07:58.175Z,8.57
2022-12-08T20:10:29.341Z,8.61
2022-12-08T20:13:12.196Z,8.59
2022-12-08T20:15:40.948Z,8.57
2022-12-08T20:18:09.713Z,8.63
2022-12-08T20:20:41.027Z,8.56
2022-12-08T20:23:09.740Z,8.64
2022-12-08T20:25:39.891Z,8.70
2022-12-08T20:28:08.750Z,8.69
2022-12-08T20:30:38.805Z,8.62
2022-12-08T20:33:07.522Z,8.73
2022-12-08T20:35:36.189Z,8.77
2022-12-08T20:38:06.189Z,8.74
2022-12-08T20:40:34.851Z,8.70
2022-12-08T20:43:03.544Z,8.70
2022-12-08T20:45:32.158Z,8.72
2022-12-08T20:48:01.023Z,8.70
2022-12-08T20:50:29.885Z,8.63
2022-12-08T20:52:58.821Z,8.60
2022-12-08T20:55:28.947Z,8.67
2022-12-08T20:57:57.670Z,8.78
2022-12-08T21:00:27.937Z,8.81
2022-12-08T21:02:57.461Z,8.65
2022-12-08T21:05:26.465Z,8.56
2022-12-08T21:07:55.426Z,8.64
2022-12-08T21:10:24.331Z,8.74
2022-12-08T21:12:54.444Z,8.78
2022-12-08T21:15:23.291Z,8.78
2022-12-08T21:17:52.162Z,8.90
2022-12-08T21:20:20.856Z,8.77
2022-12-08T21:22:49.707Z,8.72
2022-12-08T21:25:18.696Z,8.85
2022-12-08T21:27:47.473Z,8.82
2022-12-08T21:30:18.130Z,8.59
2022-12-08T21:32:46.932Z,8.46
2022-12-08T21:35:15.746Z,8.49
2022-12-08T21:37:44.445Z,8.58
2022-12-08T21:40:14.147Z,8.58
2022-12-08T21:42:45.064Z,8.58
2022-12-08T21:45:17.275Z,8.68
2022-12-08T21:47:48.108Z,8.76
2022-12-08T21:50:17.673Z,8.57
2022-12-08T21:52:48.624Z,8.41
2022-12-08T21:55:19.135Z,8.07
2022-12-08T21:57:48.183Z,7.95
2022-12-08T22:00:19.930Z,8.11
2022-12-08T22:02:48.903Z,8.37
2022-12-08T22:05:18.026Z,8.32
2022-12-08T22:07:46.725Z,8.37
2022-12-08T22:10:15.767Z,8.44
2022-12-08T22:12:44.700Z,8.47
2022-12-08T22:15:14.135Z,8.47
2022-12-08T22:17:45.156Z,8.32
2022-12-08T22:20:16.072Z,8.25
2022-12-08T22:22:46.054Z,8.24
2022-12-08T22:25:15.340Z,8.20
2022-12-08T22:27:44.404Z,8.10
2022-12-08T22:30:13.570Z,8.36
2022-12-08T22:32:43.775Z,8.25
2022-12-08T22:35:12.777Z,8.38
2022-12-08T22:37:41.524Z,8.31
2022-12-08T22:40:11.716Z,8.46
2022-12-08T22:42:40.781Z,8.54
2022-12-08T22:45:10.961Z,8.67
2022-12-08T22:47:39.704Z,8.75
2022-12-08T22:50:11.110Z,8.72
2022-12-08T22:52:40.208Z,8.76
2022-12-08T22:55:09.974Z,8.66
2022-12-08T22:57:38.778Z,8.67
2022-12-08T23:00:11.641Z,8.58
2022-12-08T23:02:40.809Z,8.64
2022-12-08T23:05:11.757Z,8.62
2022-12-08T23:07:41.337Z,8.54
2022-12-08T23:10:12.175Z,8.50
2022-12-08T23:12:40.977Z,8.56
2022-12-08T23:15:10.593Z,8.63
2022-12-08T23:17:39.368Z,8.66
2022-12-08T23:20:10.959Z,8.58
2022-12-08T23:22:39.856Z,8.28
2022-12-08T23:25:09.518Z,8.45
2022-12-08T23:27:38.670Z,8.40
2022-12-08T23:30:08.791Z,8.03
2022-12-08T23:32:37.845Z,7.69
2022-12-08T23:35:07.981Z,8.13
2022-12-08T23:37:38.347Z,8.36
2022-12-08T23:40:08.825Z,7.64
2022-12-08T23:42:37.693Z,7.80
2022-12-08T23:45:08.498Z,7.72
2022-12-08T23:47:37.524Z,8.06
2022-12-08T23:50:07.974Z,7.77
2022-12-08T23:52:39.760Z,8.01
2022-12-08T23:55:09.559Z,7.57
2022-12-08T23:57:39.124Z,8.02
